createdAt,value
2019-05-22T00:03:47.082Z,89.12
2019-05-22T00:08:52.597Z,89.05
2019-05-22T00:13:59.348Z,89.03
2019-05-22T00:19:06.010Z,89.13
2019-05-22T00:24:12.277Z,89.18
2019-05-22T00:29:17.414Z,89.36
2019-05-22T00:34:23.881Z,89.58
2019-05-22T00:39:30.797Z,89.57
2019-05-22T00:44:35.659Z,89.82
2019-05-22T00:49:40.447Z,89.92
2019-05-22T00:54:53.644Z,90.11
2019-05-22T01:00:07.678Z,89.91
2019-05-22T01:05:13.431Z,90.17
2019-05-22T01:10:18.909Z,90.14
2019-05-22T01:15:25.144Z,89.98
2019-05-22T01:20:30.328Z,89.85
2019-05-22T01:25:37.189Z,89.92
2019-05-22T01:30:51.381Z,89.80
2019-05-22T01:36:05.067Z,89.47
2019-05-22T01:41:16.343Z,89.32
2019-05-22T01:46:22.563Z,89.33
2019-05-22T01:51:27.953Z,89.31
2019-05-22T01:56:34.862Z,89.57
2019-05-22T02:01:40.124Z,89.49
2019-05-22T02:06:44.823Z,89.82
2019-05-22T02:11:54.556Z,90.00
2019-05-22T02:17:00.131Z,90.12
2019-05-22T02:22:06.942Z,90.04
2019-05-22T02:27:13.929Z,90.14
2019-05-22T02:32:20.379Z,90.42
2019-05-22T02:37:25.325Z,90.30
2019-05-22T02:42:33.187Z,89.95
2019-05-22T02:47:39.029Z,89.77
2019-05-22T02:52:44.159Z,89.66
2019-05-22T02:57:49.428Z,89.25
2019-05-22T03:02:55.917Z,88.88
2019-05-22T03:08:01.658Z,88.70
2019-05-22T03:13:08.740Z,88.34
2019-05-22T03:18:13.770Z,87.65
2019-05-22T03:23:36.742Z,87.36
2019-05-22T03:28:42.312Z,87.23
2019-05-22T03:33:47.531Z,87.12
2019-05-22T03:38:53.217Z,87.37
2019-05-22T03:43:58.680Z,87.52
2019-05-22T03:49:05.175Z,87.44
2019-05-22T03:54:11.490Z,87.45
2019-05-22T03:59:16.509Z,87.61
2019-05-22T04:04:34.548Z,88.01
2019-05-22T04:09:40.410Z,88.15
2019-05-22T04:14:46.075Z,88.52
2019-05-22T04:19:52.012Z,88.60
2019-05-22T04:24:57.515Z,88.72
2019-05-22T04:30:03.371Z,88.68
2019-05-22T04:35:11.888Z,88.58
2019-05-22T04:40:46.654Z,88.76
2019-05-22T04:45:53.996Z,88.65
2019-05-22T04:51:04.316Z,88.86
2019-05-22T04:56:08.965Z,88.41
2019-05-22T05:01:13.619Z,87.77
2019-05-22T05:06:19.558Z,87.13
2019-05-22T05:11:24.698Z,86.62
2019-05-22T05:16:29.487Z,86.25
2019-05-22T05:21:34.873Z,86.09
2019-05-22T05:26:40.463Z,86.22
2019-05-22T05:31:45.515Z,86.35
2019-05-22T05:36:50.740Z,86.50
2019-05-22T05:41:55.794Z,86.36
2019-05-22T05:47:00.513Z,86.04
2019-05-22T05:52:07.741Z,86.12
2019-05-22T05:57:40.413Z,86.12
2019-05-22T06:02:56.138Z,85.94
2019-05-22T06:07:51.953Z,85.56
2019-05-22T06:12:57.681Z,85.00
2019-05-22T06:18:21.264Z,83.34
2019-05-22T06:24:05.813Z,82.26
2019-05-22T06:29:12.511Z,82.26
2019-05-22T06:34:17.225Z,80.66
2019-05-22T06:39:23.390Z,78.53
2019-05-22T06:44:33.625Z,74.69
2019-05-22T06:49:49.510Z,73.09
2019-05-22T06:54:55.219Z,73.25
2019-05-22T07:00:13.465Z,71.10
2019-05-22T07:05:08.808Z,70.47
2019-05-22T07:10:14.855Z,75.73
2019-05-22T07:15:25.736Z,79.94
2019-05-22T07:20:33.751Z,81.74
2019-05-22T07:25:40.435Z,82.61
2019-05-22T07:30:45.797Z,83.03
2019-05-22T07:36:08.416Z,82.13
2019-05-22T07:40:57.609Z,79.70
2019-05-22T07:46:02.655Z,78.68
2019-05-22T07:51:08.683Z,76.29
2019-05-22T07:56:14.330Z,74.29
2019-05-22T08:01:18.970Z,75.13
2019-05-22T08:06:25.029Z,73.54
2019-05-22T08:11:30.083Z,73.18
2019-05-22T08:16:35.544Z,66.28
2019-05-22T08:21:41.002Z,63.41
2019-05-22T08:26:54.596Z,64.13
2019-05-22T08:31:54.463Z,64.00
2019-05-22T08:37:00.004Z,64.65
2019-05-22T08:42:05.543Z,62.08
2019-05-22T08:47:10.991Z,60.27
2019-05-22T08:52:23.626Z,58.35
2019-05-22T08:57:23.920Z,55.51
2019-05-22T09:02:29.125Z,56.30
2019-05-22T09:07:34.019Z,57.45
2019-05-22T09:12:39.156Z,54.81
2019-05-22T09:17:43.996Z,56.17
2019-05-22T09:22:48.842Z,53.54
2019-05-22T09:27:54.082Z,50.88
2019-05-22T09:32:59.221Z,52.43
2019-05-22T09:38:04.138Z,49.49
2019-05-22T09:43:09.004Z,49.74
2019-05-22T09:48:14.114Z,47.87
2019-05-22T09:53:19.762Z,47.79
2019-05-22T09:58:24.703Z,47.53
2019-05-22T10:03:30.153Z,41.65
2019-05-22T10:08:35.281Z,39.34
2019-05-22T10:13:40.551Z,52.81
2019-05-22T10:18:45.495Z,44.09
2019-05-22T10:23:50.641Z,51.79
2019-05-22T10:28:57.381Z,51.07
2019-05-22T10:34:02.222Z,49.40
2019-05-22T10:39:07.922Z,51.00
2019-05-22T10:44:12.888Z,50.58
2019-05-22T10:49:17.861Z,47.77
2019-05-22T10:54:22.501Z,53.18
2019-05-22T10:59:27.439Z,50.37
2019-05-22T11:04:32.437Z,52.14
2019-05-22T11:09:37.844Z,55.52
2019-05-22T11:14:43.749Z,50.00
2019-05-22T11:19:48.860Z,50.91
2019-05-22T11:24:54.331Z,47.59
2019-05-22T11:29:59.394Z,49.39
2019-05-22T11:35:04.771Z,50.55
2019-05-22T11:40:10.332Z,59.90
2019-05-22T11:45:16.624Z,60.18
2019-05-22T11:50:21.576Z,61.92
2019-05-22T11:55:42.625Z,55.85
2019-05-22T12:00:33.319Z,54.09
2019-05-22T12:05:38.871Z,50.99
2019-05-22T12:10:44.552Z,50.76
2019-05-22T12:15:49.836Z,45.43
2019-05-22T12:20:54.851Z,46.34
2019-05-22T12:25:59.603Z,40.49
2019-05-22T12:31:05.223Z,34.52
2019-05-22T12:36:12.523Z,41.35
2019-05-22T12:41:19.292Z,45.51
2019-05-22T12:46:24.463Z,39.07
2019-05-22T12:51:29.433Z,36.66
2019-05-22T12:56:34.314Z,39.21
2019-05-22T13:01:39.902Z,41.01
2019-05-22T13:06:44.982Z,44.20
2019-05-22T13:11:50.185Z,41.61
2019-05-22T13:16:55.173Z,43.57
2019-05-22T13:22:00.705Z,39.02
2019-05-22T13:27:08.136Z,39.30
2019-05-22T13:32:15.051Z,44.85
2019-05-22T13:37:20.202Z,43.90
2019-05-22T13:42:25.587Z,42.49
2019-05-22T13:47:30.876Z,42.88
2019-05-22T13:52:38.353Z,43.04
2019-05-22T13:57:43.061Z,41.20
2019-05-22T14:02:48.457Z,41.52
2019-05-22T14:07:53.431Z,40.61
2019-05-22T14:12:59.030Z,40.58
2019-05-22T14:18:04.277Z,43.44
2019-05-22T14:23:09.151Z,46.34
2019-05-22T14:28:14.302Z,42.30
2019-05-22T14:33:19.403Z,44.69
2019-05-22T14:38:25.081Z,49.07
2019-05-22T14:43:30.391Z,43.49
2019-05-22T14:48:35.340Z,45.09
2019-05-22T14:53:41.831Z,45.47
2019-05-22T14:58:48.591Z,45.95
2019-05-22T15:03:53.661Z,45.88
2019-05-22T15:08:59.918Z,45.07
2019-05-22T15:14:05.071Z,48.20
2019-05-22T15:19:11.656Z,48.34
2019-05-22T15:24:16.640Z,46.77
2019-05-22T15:29:21.612Z,44.91
2019-05-22T15:34:27.482Z,44.35
2019-05-22T15:39:32.850Z,47.22
2019-05-22T15:44:37.920Z,48.90
2019-05-22T15:49:45.251Z,49.76
2019-05-22T15:54:50.770Z,47.80
2019-05-22T15:59:55.910Z,50.93
2019-05-22T16:05:02.262Z,48.81
2019-05-22T16:10:08.096Z,50.30
2019-05-22T16:15:13.862Z,51.18
2019-05-22T16:20:22.231Z,49.07
2019-05-22T16:25:28.303Z,49.82
2019-05-22T16:30:33.735Z,49.96
2019-05-22T16:35:39.762Z,50.81
2019-05-22T16:40:45.716Z,52.19
2019-05-22T16:45:50.890Z,52.57
2019-05-22T16:50:55.631Z,50.95
2019-05-22T16:56:00.690Z,50.04
2019-05-22T17:01:07.219Z,51.67
2019-05-22T17:06:12.761Z,53.42
2019-05-22T17:11:17.842Z,54.27
2019-05-22T17:16:23.552Z,53.59
2019-05-22T17:21:30.095Z,54.76
2019-05-22T17:26:36.117Z,50.29
2019-05-22T17:31:41.382Z,50.43
2019-05-22T17:36:46.339Z,50.35
2019-05-22T17:41:55.942Z,48.53
2019-05-22T17:47:00.650Z,51.47
2019-05-22T17:52:06.019Z,52.91
2019-05-22T17:57:11.947Z,51.55
2019-05-22T18:02:18.291Z,54.47
2019-05-22T18:07:24.071Z,53.26
2019-05-22T18:12:29.411Z,53.09
2019-05-22T18:17:34.423Z,50.56
2019-05-22T18:22:40.246Z,55.03
2019-05-22T18:27:45.575Z,55.72
2019-05-22T18:32:50.453Z,56.95
2019-05-22T18:37:55.093Z,58.23
2019-05-22T18:43:00.110Z,61.05
2019-05-22T18:48:06.246Z,67.52
2019-05-22T18:53:11.066Z,69.24
2019-05-22T18:58:15.837Z,69.67
2019-05-22T19:03:20.905Z,69.49
2019-05-22T19:08:26.043Z,69.64
2019-05-22T19:13:30.926Z,70.01
2019-05-22T19:18:36.467Z,70.24
2019-05-22T19:23:42.168Z,70.58
2019-05-22T19:28:46.948Z,70.92
2019-05-22T19:33:51.986Z,72.66
2019-05-22T19:38:56.895Z,74.89
2019-05-22T19:44:02.004Z,75.86
2019-05-22T19:49:08.206Z,76.20
2019-05-22T19:54:13.279Z,76.20
2019-05-22T19:59:19.280Z,75.34
2019-05-22T20:04:24.067Z,74.91
2019-05-22T20:09:29.185Z,74.77
2019-05-22T20:14:34.674Z,73.59
2019-05-22T20:19:40.797Z,73.59
2019-05-22T20:24:45.788Z,73.04
2019-05-22T20:29:50.690Z,72.27
2019-05-22T20:34:55.473Z,70.85
2019-05-22T20:40:01.227Z,69.92
2019-05-22T20:45:08.466Z,68.64
2019-05-22T20:50:14.065Z,67.90
2019-05-22T20:55:19.686Z,68.80
2019-05-22T21:00:26.503Z,70.10
2019-05-22T21:05:32.025Z,71.69
2019-05-22T21:10:36.905Z,72.70
2019-05-22T21:15:42.395Z,72.37
2019-05-22T21:20:54.743Z,71.87
2019-05-22T21:25:55.817Z,73.01
2019-05-22T21:31:00.955Z,73.80
2019-05-22T21:36:06.524Z,73.92
2019-05-22T21:41:11.598Z,74.10
2019-05-22T21:46:16.523Z,74.65
2019-05-22T21:51:21.965Z,76.04
2019-05-22T21:56:26.645Z,76.52
2019-05-22T22:01:36.245Z,76.14
2019-05-22T22:06:42.257Z,76.95
2019-05-22T22:11:47.617Z,77.65
2019-05-22T22:16:52.357Z,78.00
2019-05-22T22:21:57.287Z,77.72
2019-05-22T22:27:04.249Z,77.09
2019-05-22T22:32:12.227Z,77.66
2019-05-22T22:37:17.769Z,78.02
2019-05-22T22:42:25.154Z,77.85
2019-05-22T22:47:37.217Z,76.51
2019-05-22T22:52:45.390Z,74.61
2019-05-22T22:57:51.685Z,75.13
2019-05-22T23:02:58.986Z,76.39
2019-05-22T23:08:04.877Z,77.30
2019-05-22T23:13:09.666Z,76.05
2019-05-22T23:18:23.034Z,76.06
2019-05-22T23:23:26.695Z,76.28
2019-05-22T23:28:34.972Z,76.41
2019-05-22T23:33:39.365Z,76.55
2019-05-22T23:38:45.509Z,76.59
2019-05-22T23:43:50.648Z,76.52
2019-05-22T23:48:55.647Z,76.57
2019-05-22T23:54:01.937Z,76.54
2019-05-22T23:59:08.358Z,76.37
